Time;durP1;ratioP1;P1;durP2;ratioP2;P2;SDS_P1;SDS_P2;PMS_P1;PMS_P2;Temp;Humidity;BMP_temperature;BMP_pressure;BME280_temperature;BME280_humidity;BME280_pressure;Samples;Min_cycle;Max_cycle;Signal;HPM_P1;HPM_P2
2022/04/03 00:03:06;;;;;;;20.43;11.53;;;;;;;-1.63;100.00;102333.94;2600309;54;20093;31
2022/04/03 00:05:45;;;;;;;20.75;10.13;;;;;;;-1.81;100.00;102327.13;2600677;47;20274;31
2022/04/03 00:16:10;;;;;;;19.75;10.90;;;;;;;-1.95;100.00;102336.09;2600166;54;21300;31
2022/04/03 00:18:46;;;;;;;20.65;10.98;;;;;;;-1.92;100.00;102331.69;2611395;39;20905;31
2022/04/03 00:26:39;;;;;;;23.10;11.83;;;;;;;-1.95;100.00;102340.50;2599512;54;20034;31
2022/04/03 00:34:30;;;;;;;20.85;13.32;;;;;;;-1.83;100.00;102342.13;2610591;39;20907;31
2022/04/03 00:37:06;;;;;;;24.55;13.18;;;;;;;-1.79;100.00;102341.19;2600154;46;20096;31
2022/04/03 00:44:54;;;;;;;24.38;12.25;;;;;;;-1.80;100.00;102335.03;2597883;54;20053;31
2022/04/03 01:00:30;;;;;;;23.80;12.00;;;;;;;-2.20;100.00;102342.59;2597022;39;20211;31
2022/04/03 01:05:41;;;;;;;21.77;12.13;;;;;;;-2.31;100.00;102340.94;2597493;54;20384;31
2022/04/03 01:13:46;;;;;;;23.17;12.40;;;;;;;-2.40;100.00;102329.59;2597551;54;20034;31
2022/04/03 01:16:25;;;;;;;24.60;12.10;;;;;;;-2.33;100.00;102336.56;2598085;47;20387;31
2022/04/03 01:24:19;;;;;;;21.38;11.38;;;;;;;-2.25;100.00;102337.38;2596169;54;20034;31
2022/04/03 01:29:32;;;;;;;22.52;12.05;;;;;;;-2.25;100.00;102337.38;2596965;54;20270;31
2022/04/03 01:32:10;;;;;;;21.70;12.80;;;;;;;-2.25;100.00;102325.91;2597580;47;19953;31
2022/04/03 01:39:59;;;;;;;21.25;11.40;;;;;;;-2.29;100.00;102317.19;2596813;54;20030;31
2022/04/03 01:45:25;;;;;;;15.57;10.32;;;;;;;-2.15;100.00;102323.19;2598501;54;21290;31
2022/04/03 01:50:53;;;;;;;16.58;10.70;;;;;;;-2.35;100.00;102326.03;2596885;54;20974;31
2022/04/03 01:53:34;;;;;;;19.65;11.35;;;;;;;-2.37;100.00;102327.81;2597360;54;20060;31
2022/04/03 01:56:12;;;;;;;22.30;11.43;;;;;;;-2.40;100.00;102322.59;2597113;47;20065;31
2022/04/03 02:04:05;;;;;;;21.70;10.85;;;;;;;-2.30;100.00;102320.69;2595939;54;20038;31
2022/04/03 02:06:44;;;;;;;;;;;;;;;-2.27;100.00;102312.75;2615477;36;21017;31
2022/04/03 02:09:21;;;;;;;17.05;11.43;;;;;;;-2.19;100.00;102310.91;2597844;39;21053;31
2022/04/03 02:20:10;;;;;;;16.53;9.60;;;;;;;-1.66;100.00;102299.69;2596396;54;21406;31
2022/04/03 02:27:56;;;;;;;15.70;9.00;;;;;;;-1.61;100.00;102305.75;2596514;54;20232;31
2022/04/03 02:30:35;;;;;;;16.25;9.15;;;;;;;-1.65;100.00;102307.56;2597432;47;21473;31
2022/04/03 02:38:24;;;;;;;13.55;8.82;;;;;;;-1.69;100.00;102307.59;2597530;54;19950;31
2022/04/03 02:43:34;;;;;;;13.55;8.55;;;;;;;-1.96;100.00;102310.63;2597319;54;20042;31
2022/04/03 02:46:13;;;;;;;16.77;8.77;;;;;;;-1.63;100.00;102313.69;2598369;54;20362;31
2022/04/03 02:56:40;;;;;;;16.70;9.55;;;;;;;-1.11;100.00;102313.78;2596812;54;20078;31
2022/04/03 03:01:50;;;;;;;16.70;9.30;;;;;;;-1.13;100.00;102300.59;2597236;54;20040;31
2022/04/03 03:07:02;;;;;;;15.52;8.73;;;;;;;-0.98;100.00;102304.75;2597493;54;20466;31
2022/04/03 03:12:15;;;;;;;12.15;7.80;;;;;;;-1.03;100.00;102306.63;2597436;54;20989;31
2022/04/03 03:25:11;;;;;;;11.70;7.15;;;;;;;-1.66;100.00;102289.97;2597571;54;20052;31
2022/04/03 03:30:26;;;;;;;13.95;7.47;;;;;;;-1.64;100.00;102296.09;2598049;39;21073;31
2022/04/03 03:33:05;;;;;;;12.30;7.30;;;;;;;-1.65;100.00;102290.84;2597807;54;20281;31
2022/04/03 03:35:43;;;;;;;11.70;7.87;;;;;;;-1.67;100.00;102295.28;2597850;47;20881;31
2022/04/03 03:41:00;;;;;;;11.90;7.45;;;;;;;-1.59;100.00;102291.63;2597482;54;20038;31
2022/04/03 03:43:36;;;;;;;10.03;6.80;;;;;;;-1.45;100.00;102291.41;2598021;46;21191;31
2022/04/03 03:54:05;;;;;;;10.90;6.70;;;;;;;-1.28;100.00;102298.19;2596960;54;20376;31
2022/04/03 03:56:42;;;;;;;10.10;7.10;;;;;;;-1.15;100.00;102301.53;2616496;36;20060;31
2022/04/03 04:02:09;;;;;;;11.23;6.68;;;;;;;-1.21;100.00;102291.91;2596946;54;21133;31
2022/04/03 04:04:50;;;;;;;9.30;6.75;;;;;;;-1.13;100.00;102295.31;2617380;36;19942;31
2022/04/03 04:07:39;;;;;;;10.43;6.53;;;;;;;-1.00;100.00;102289.81;2597917;47;20068;31
2022/04/03 04:18:25;;;;;;;9.85;6.82;;;;;;;-0.93;100.00;102302.94;2597554;39;21200;31
2022/04/03 04:21:02;;;;;;;9.32;5.82;;;;;;;-1.03;100.00;102300.44;2599043;46;21131;31
2022/04/03 04:23:40;;;;;;;12.10;6.40;;;;;;;-1.00;100.00;102300.38;2597933;39;20226;31
2022/04/03 04:34:03;;;;;;;9.00;6.40;;;;;;;-1.17;100.00;102293.63;2597381;54;20387;31
2022/04/03 04:39:12;;;;;;;9.32;6.15;;;;;;;-1.30;100.00;102292.06;2597820;39;20234;31
2022/04/03 04:49:31;;;;;;;8.45;5.30;;;;;;;-1.60;100.00;102299.59;2596920;54;20034;31
2022/04/03 04:59:49;;;;;;;6.40;4.88;;;;;;;-1.71;100.00;102301.50;2597093;54;20085;31
2022/04/03 05:07:35;;;;;;;7.43;4.78;;;;;;;-1.83;100.00;102298.13;2597806;39;20308;31
2022/04/03 05:10:14;;;;;;;;;;;;;;;-1.88;100.00;102301.75;2597320;39;21195;31
2022/04/03 05:12:50;;;;;;;7.95;5.20;;;;;;;-1.95;100.00;102306.22;2597736;46;19946;31
2022/04/03 05:20:46;;;;;;;8.25;5.35;;;;;;;-2.12;100.00;102312.59;2596451;54;20370;31
2022/04/03 05:23:23;;;;;;;11.43;5.65;;;;;;;-2.15;100.00;102307.34;2597208;47;20104;31
2022/04/03 05:31:17;;;;;;;9.95;6.65;;;;;;;-1.91;100.00;102304.41;2597182;54;20921;31
2022/04/03 05:33:55;;;;;;;8.73;5.50;;;;;;;-1.89;100.00;102308.75;2597632;47;20045;31
2022/04/03 05:44:22;;;;;;;13.20;7.57;;;;;;;-1.90;100.00;102307.00;2596107;54;20029;31
2022/04/03 05:47:01;;;;;;;11.23;6.85;;;;;;;-1.90;100.00;102303.50;2596876;54;20298;31
2022/04/03 05:49:37;;;;;;;9.18;6.40;;;;;;;-1.86;100.00;102306.09;2597340;47;21235;31
2022/04/03 05:55:07;;;;;;;9.13;5.93;;;;;;;-1.74;100.00;102312.97;2597201;54;20776;31
2022/04/03 05:57:44;;;;;;;10.20;6.20;;;;;;;-1.67;100.00;102314.63;2598240;39;20156;31
2022/04/03 06:13:19;;;;;;;8.55;5.20;;;;;;;0.24;100.00;102305.03;2597948;54;19992;31
2022/04/03 06:26:14;;;;;;;9.75;4.90;;;;;;;0.83;100.00;102311.63;2598192;54;20034;31
2022/04/03 06:28:54;;;;;;;8.25;4.85;;;;;;;0.93;100.00;102310.50;2598112;54;20496;31
2022/04/03 06:34:03;;;;;;;12.75;6.10;;;;;;;0.97;100.00;102314.81;2597743;54;20041;31
2022/04/03 06:41:47;;;;;;;9.07;5.68;;;;;;;1.53;100.00;102310.69;2597779;54;21033;31
2022/04/03 06:44:27;;;;;;;6.07;5.13;;;;;;;1.38;100.00;102325.25;2598143;47;20336;31
2022/04/03 06:47:04;;;;;;;8.75;5.35;;;;;;;1.37;100.00;102321.75;2597935;47;20042;31
2022/04/03 06:49:41;;;;;;;9.77;5.23;;;;;;;1.46;100.00;102319.75;2598714;47;20422;31
2022/04/03 06:54:59;;;;;;;8.43;5.60;;;;;;;1.30;100.00;102328.13;2598101;54;20323;31
2022/04/03 06:57:35;;;;;;;7.50;5.15;;;;;;;1.53;100.00;102322.22;2598222;39;20920;31
2022/04/03 07:00:16;;;;;;;11.20;6.70;;;;;;;1.83;100.00;102313.44;2598296;47;21231;31
2022/04/03 07:02:53;;;;;;;7.55;5.70;;;;;;;1.79;100.00;102317.09;2597800;46;20045;31
2022/04/03 07:05:30;;;;;;;8.50;6.18;;;;;;;1.87;100.00;102323.03;2598167;54;20402;31
2022/04/03 07:13:14;;;;;;;9.88;6.90;;;;;;;1.99;100.00;102320.03;2598128;54;20034;31
2022/04/03 07:15:54;;;;;;;9.73;6.43;;;;;;;2.12;100.00;102324.97;2598841;47;20282;31
2022/04/03 07:23:45;;;;;;;10.90;7.35;;;;;;;2.86;100.00;102333.34;2597574;54;20485;31
2022/04/03 07:26:20;;;;;;;11.35;7.10;;;;;;;3.12;100.00;102332.47;2598815;39;20921;31
2022/04/03 07:28:57;;;;;;;9.30;6.78;;;;;;;3.02;100.00;102323.03;2598498;54;21234;31
2022/04/03 07:36:50;;;;;;;10.57;6.43;;;;;;;3.05;100.00;102331.81;2598257;39;20293;31
2022/04/03 07:39:28;;;;;;;8.65;6.50;;;;;;;3.31;100.00;102324.72;2598590;46;20710;31
2022/04/03 07:47:21;;;;;;;7.82;6.28;;;;;;;3.81;100.00;102319.41;2598274;54;20902;31
2022/04/03 07:52:36;;;;;;;8.30;6.35;;;;;;;4.51;100.00;102324.75;2598092;54;20084;31
2022/04/03 07:55:17;;;;;;;7.85;6.35;;;;;;;4.66;100.00;102323.28;2598013;46;21184;31
2022/04/03 07:57:53;;;;;;;8.65;5.97;;;;;;;5.19;100.00;102322.84;2598573;46;20108;31
2022/04/03 08:05:43;;;;;;;6.25;4.57;;;;;;;5.12;100.00;102318.69;2597708;54;20034;31
2022/04/03 08:08:20;;;;;;;8.57;5.10;;;;;;;5.20;100.00;102319.25;2598615;47;20224;31
2022/04/03 08:18:50;;;;;;;9.18;5.35;;;;;;;5.35;100.00;102319.53;2597531;54;20327;31
2022/04/03 08:27:05;;;;;;;5.55;4.28;;;;;;;5.86;100.00;102323.50;2597954;54;20303;31
2022/04/03 08:29:46;;;;;;;8.20;4.63;;;;;;;6.15;100.00;102321.31;2598165;47;20628;31
2022/04/03 08:32:33;;;;;;;6.78;3.97;;;;;;;6.76;100.00;102324.72;2604028;39;20206;31
2022/04/03 08:38:16;;;;;;;7.00;4.23;;;;;;;6.14;100.00;102331.16;2597480;54;20071;31
2022/04/03 08:40:57;;;;;;;7.97;4.20;;;;;;;5.97;100.00;102337.25;2598559;39;20704;31
2022/04/03 08:43:42;;;;;;;6.50;4.32;;;;;;;5.86;100.00;102344.91;2597861;47;20061;31
2022/04/03 08:46:28;;;;;;;7.07;4.47;;;;;;;5.89;100.00;102339.41;2598461;39;20238;31
2022/04/03 08:49:14;;;;;;;5.30;3.50;;;;;;;5.56;100.00;102337.28;2598520;46;20038;31
2022/04/03 09:00:26;;;;;;;3.42;1.27;;;;;;;5.82;100.00;102342.44;2598018;54;20555;31
2022/04/03 09:03:03;;;;;;;2.50;1.40;;;;;;;5.80;100.00;102353.19;2598581;47;20797;31
2022/04/03 09:08:20;;;;;;;2.95;1.65;;;;;;;6.03;100.00;102345.97;2597542;54;20887;31
2022/04/03 09:11:05;;;;;;;5.28;1.52;;;;;;;5.91;100.00;102348.22;2598726;54;20133;31
2022/04/03 09:24:13;;;;;;;4.00;2.05;;;;;;;5.60;100.00;102354.91;2597568;54;20034;31
2022/04/03 09:26:59;;;;;;;3.13;1.70;;;;;;;5.94;100.00;102347.22;2597970;47;20725;31
2022/04/03 09:29:38;;;;;;;2.92;1.52;;;;;;;5.97;100.00;102347.97;2601954;31;20232;31
2022/04/03 09:37:25;;;;;;;2.72;1.42;;;;;;;6.56;100.00;102337.22;2598790;54;20265;31
2022/04/03 09:40:03;;;;;;;4.87;1.73;;;;;;;6.86;100.00;102327.78;2598379;47;20902;31
2022/04/03 10:02:42;;;;;;;3.55;1.33;;;;;;;8.39;100.00;102304.53;2596247;54;20030;31
2022/04/03 10:14:06;;;;;;;3.30;1.20;;;;;;;8.09;100.00;102285.69;2598677;39;20686;31
2022/04/03 10:16:53;;;;;;;3.75;1.40;;;;;;;8.22;100.00;102292.94;2616678;36;20278;31
2022/04/03 10:19:32;;;;;;;1.85;1.10;;;;;;;8.27;100.00;102287.31;2599043;39;21124;31
2022/04/03 10:27:23;;;;;;;3.83;1.10;;;;;;;8.75;100.00;102277.47;2598730;39;20258;31
2022/04/03 10:32:34;;;;;;;2.20;1.20;;;;;;;8.14;100.00;102272.88;2600852;31;21430;31
2022/04/03 10:37:47;;;;;;;4.63;1.50;;;;;;;7.77;100.00;102280.25;2598597;54;20113;31
2022/04/03 10:40:28;;;;;;;3.43;1.30;;;;;;;7.96;100.00;102269.41;2598444;47;20045;31
2022/04/03 10:43:09;;;;;;;2.00;1.10;;;;;;;8.12;100.00;102274.78;2599021;47;20096;31
2022/04/03 10:51:01;;;;;;;4.45;1.00;;;;;;;8.94;100.00;102269.19;2598106;54;19950;31
2022/04/03 10:59:12;;;;;;;4.75;1.10;;;;;;;9.13;100.00;102257.38;2598012;54;20120;31
2022/04/03 11:07:14;;;;;;;4.50;1.57;;;;;;;8.70;100.00;102255.41;2598392;54;20070;31
2022/04/03 11:09:51;;;;;;;4.40;2.30;;;;;;;8.80;100.00;102250.34;2599156;47;20721;31
2022/04/03 11:25:29;;;;;;;4.07;1.73;;;;;;;10.13;100.00;102239.53;2597955;54;20058;31
2022/04/03 11:28:15;;;;;;;3.45;1.60;;;;;;;10.02;100.00;102233.97;2598715;46;20300;31
2022/04/03 11:30:56;;;;;;;3.63;1.33;;;;;;;10.68;100.00;102240.44;2598675;47;20145;31
2022/04/03 11:36:21;;;;;;;2.85;1.50;;;;;;;9.68;100.00;102234.28;2598206;54;21423;31
2022/04/03 11:41:51;;;;;;;2.55;2.00;;;;;;;7.76;100.00;102249.03;2598424;54;20042;31
2022/04/03 11:47:24;;;;;;;1.38;1.13;;;;;;;7.34;100.00;102243.22;2598430;54;20034;31
2022/04/03 11:52:38;;;;;;;1.95;1.60;;;;;;;7.44;100.00;102240.94;2598322;54;21252;31
2022/04/03 11:57:56;;;;;;;3.05;1.33;;;;;;;8.22;100.00;102238.44;2597195;54;20107;31
2022/04/03 12:00:33;;;;;;;2.00;1.33;;;;;;;8.44;100.00;102238.13;2599229;47;20331;31
2022/04/03 12:08:38;;;;;;;2.13;1.55;;;;;;;8.50;100.00;102243.13;2598745;39;20139;31
2022/04/03 12:11:25;;;;;;;2.70;1.70;;;;;;;8.89;100.00;102232.81;2599150;47;20038;31
2022/04/03 12:19:21;;;;;;;4.50;2.30;;;;;;;9.40;100.00;102237.81;2598346;54;20401;31
2022/04/03 12:27:42;;;;;;;5.15;1.80;;;;;;;10.17;100.00;102227.56;2598707;54;20913;31
2022/04/03 12:30:22;;;;;;;2.90;1.70;;;;;;;10.44;100.00;102224.09;2598808;47;20422;31
2022/04/03 12:38:13;;;;;;;2.70;1.73;;;;;;;9.30;100.00;102221.41;2598308;39;20218;31
2022/04/03 12:48:42;;;;;;;2.40;1.90;;;;;;;10.01;100.00;102206.19;2598593;54;20142;31
2022/04/03 12:51:21;;;;;;;2.33;1.60;;;;;;;10.42;100.00;102210.72;2598830;39;20208;31
2022/04/03 13:12:46;;;;;;;2.50;1.70;;;;;;;10.24;100.00;102191.25;2598315;54;20463;31
2022/04/03 13:15:25;;;;;;;2.75;1.40;;;;;;;9.45;100.00;102192.72;2598802;54;20739;31
2022/04/03 13:20:52;;;;;;;5.40;1.65;;;;;;;8.65;100.00;102195.75;2598111;54;20932;31
2022/04/03 13:42:18;;;;;;;2.70;1.80;;;;;;;9.21;100.00;102176.31;2598649;39;21209;31
2022/04/03 13:47:51;;;;;;;2.50;1.60;;;;;;;8.96;100.00;102180.47;2598171;54;20363;31
2022/04/03 13:53:16;;;;;;;2.65;1.40;;;;;;;8.75;100.00;102178.13;2597962;54;21368;31
2022/04/03 13:58:45;;;;;;;4.22;1.80;;;;;;;8.52;100.00;102171.44;2597889;54;20470;31
2022/04/03 14:04:10;;;;;;;5.55;1.70;;;;;;;8.38;100.00;102171.38;2598897;54;20034;31
2022/04/03 14:11:58;;;;;;;4.50;2.20;;;;;;;8.35;100.00;102158.16;2597631;54;21180;31
2022/04/03 14:14:44;;;;;;;4.40;3.28;;;;;;;8.17;100.00;102154.69;2598264;39;20165;31
2022/04/03 14:17:23;;;;;;;3.73;1.80;;;;;;;7.97;100.00;102151.34;2598466;47;20249;31
2022/04/03 14:25:19;;;;;;;2.03;1.67;;;;;;;8.42;100.00;102127.28;2597035;54;20269;31
2022/04/03 14:30:48;;;;;;;2.70;1.60;;;;;;;9.16;100.00;102138.09;2597431;54;20392;31
2022/04/03 14:33:29;;;;;;;3.40;2.00;;;;;;;9.43;100.00;102130.13;2598767;47;20110;31
2022/04/03 14:36:06;;;;;;;2.55;1.55;;;;;;;9.53;100.00;102133.13;2599608;39;20793;31
2022/04/03 14:43:57;;;;;;;4.32;1.85;;;;;;;9.53;100.00;102125.06;2600118;54;21164;31
2022/04/03 14:51:42;;;;;;;3.65;2.15;;;;;;;10.58;100.00;102112.78;2599104;39;20354;31
2022/04/03 14:57:00;;;;;;;2.17;1.25;;;;;;;10.65;100.00;102093.41;2599354;54;20261;31
2022/04/03 15:04:51;;;;;;;3.47;1.40;;;;;;;10.57;100.00;102078.75;2596399;54;20038;31
2022/04/03 15:07:31;;;;;;;2.77;1.10;;;;;;;10.51;100.00;102088.09;2598730;46;20306;31
2022/04/03 15:17:56;;;;;;;6.00;1.50;;;;;;;9.11;100.00;102082.88;2597860;54;20034;31
2022/04/03 15:25:42;;;;;;;4.18;1.40;;;;;;;8.57;100.00;102083.50;2598315;54;21419;31
2022/04/03 15:28:19;;;;;;;3.70;1.40;;;;;;;8.34;100.00;102094.72;2598657;47;21212;31
2022/04/03 15:30:56;;;;;;;2.17;1.52;;;;;;;8.21;100.00;102087.38;2598798;47;20385;31
2022/04/03 15:38:58;;;;;;;4.22;1.40;;;;;;;7.98;100.00;102078.00;2598665;54;20428;31
2022/04/03 15:44:22;;;;;;;2.37;1.53;;;;;;;7.93;100.00;102076.53;2598981;54;21569;31
2022/04/03 15:47:07;;;;;;;4.10;2.25;;;;;;;8.12;100.00;102071.81;2598467;54;20380;31
2022/04/03 15:49:44;;;;;;;4.70;1.50;;;;;;;7.98;100.00;102072.66;2599011;39;20288;31
2022/04/03 15:55:00;;;;;;;2.33;1.60;;;;;;;8.05;100.00;102081.19;2598111;54;20288;31
2022/04/03 15:57:40;;;;;;;4.28;1.55;;;;;;;7.83;100.00;102084.25;2598966;39;20212;31
2022/04/03 16:00:19;;;;;;;4.53;3.55;;;;;;;8.01;100.00;102075.16;2598921;47;20050;31
2022/04/03 16:08:09;;;;;;;2.25;1.60;;;;;;;8.03;100.00;102081.28;2598056;39;20295;31
2022/04/03 16:10:46;;;;;;;3.22;1.80;;;;;;;7.95;100.00;102077.31;2598956;46;20231;31
2022/04/03 16:18:43;;;;;;;3.80;1.60;;;;;;;8.14;100.00;102069.94;2597507;54;20038;31
2022/04/03 16:21:23;;;;;;;3.15;1.95;;;;;;;8.10;100.00;102070.19;2598705;46;20404;31
2022/04/03 16:24:01;;;;;;;4.47;1.63;;;;;;;7.89;100.00;102063.31;2598869;39;20238;31
2022/04/03 16:34:27;;;;;;;5.95;1.80;;;;;;;7.45;100.00;102063.16;2597671;54;20038;31
2022/04/03 16:39:41;;;;;;;3.38;1.70;;;;;;;7.43;100.00;102065.06;2597786;54;20482;31
2022/04/03 16:42:20;;;;;;;2.95;2.08;;;;;;;7.43;100.00;102059.72;2598610;39;20844;31
2022/04/03 16:55:20;;;;;;;4.18;1.98;;;;;;;7.17;100.00;102046.84;2597336;54;20034;31
2022/04/03 16:57:58;;;;;;;1.73;1.30;;;;;;;7.09;100.00;102049.06;2598751;47;20039;31
2022/04/03 17:13:32;;;;;;;4.63;1.92;;;;;;;6.68;100.00;102062.00;2597306;54;20034;31
2022/04/03 17:18:42;;;;;;;2.88;1.52;;;;;;;6.75;100.00;102060.75;2597646;54;20398;31
2022/04/03 17:23:53;;;;;;;5.35;2.75;;;;;;;6.94;100.00;102058.78;2597954;54;20300;31
2022/04/03 17:26:30;;;;;;;3.23;1.57;;;;;;;6.89;100.00;102052.84;2598054;54;20352;31
2022/04/03 17:29:10;;;;;;;4.47;2.30;;;;;;;7.05;100.00;102060.03;2598585;39;20176;31
2022/04/03 17:37:01;;;;;;;4.35;1.83;;;;;;;6.58;100.00;102038.44;2597314;54;20262;31
2022/04/03 17:42:10;;;;;;;5.40;1.70;;;;;;;6.39;100.00;102032.28;2597733;54;20381;31
2022/04/03 17:47:29;;;;;;;2.80;1.50;;;;;;;6.28;100.00;102025.69;2597351;54;21212;31
2022/04/03 17:50:09;;;;;;;2.55;1.20;;;;;;;6.23;100.00;102032.25;2598523;39;20632;31
2022/04/03 18:03:08;;;;;;;4.50;2.00;;;;;;;5.74;100.00;102049.78;2597164;54;20042;31
2022/04/03 18:11:12;;;;;;;3.95;2.42;;;;;;;5.72;100.00;102056.13;2598404;54;20897;31
2022/04/03 18:16:24;;;;;;;4.40;2.10;;;;;;;5.58;100.00;102060.34;2598201;54;20039;31
2022/04/03 18:19:03;;;;;;;2.85;2.00;;;;;;;5.55;100.00;102065.81;2599350;46;20266;31
2022/04/03 18:29:31;;;;;;;4.80;2.10;;;;;;;5.46;100.00;102065.38;2598362;39;20700;31
2022/04/03 18:32:08;;;;;;;4.47;1.83;;;;;;;5.41;100.00;102065.63;2599027;54;20258;31
2022/04/03 18:47:46;;;;;;;4.30;2.13;;;;;;;5.09;100.00;102054.63;2597865;54;20264;31
2022/04/03 18:50:27;;;;;;;6.37;3.17;;;;;;;5.03;100.00;102054.94;2598910;39;20672;31
2022/04/03 19:21:25;;;;;;;;;;;;;;;4.24;100.00;102044.19;2597859;54;20039;31
2022/04/03 19:24:06;;;;;;;5.05;2.30;;;;;;;4.21;100.00;102046.06;2598900;39;21033;31
2022/04/03 19:26:47;;;;;;;3.90;2.20;;;;;;;4.16;100.00;102048.06;2617556;36;21172;31
2022/04/03 19:37:20;;;;;;;4.95;2.80;;;;;;;4.11;100.00;102030.53;2598274;54;21316;31
2022/04/03 19:42:35;;;;;;;4.18;2.53;;;;;;;4.09;100.00;102025.25;2598074;54;21270;31
2022/04/03 19:45:13;;;;;;;4.55;2.55;;;;;;;4.02;100.00;102021.16;2598787;47;20839;31
2022/04/03 19:53:04;;;;;;;6.45;2.90;;;;;;;3.75;100.00;102026.69;2597917;39;21230;31
2022/04/03 19:55:45;;;;;;;7.80;3.73;;;;;;;3.80;100.00;102030.03;2598096;47;21285;31
2022/04/03 19:58:23;;;;;;;6.68;4.43;;;;;;;3.90;100.00;102029.66;2598251;47;21213;31
2022/04/03 20:01:02;;;;;;;8.23;6.13;;;;;;;3.76;100.00;102031.09;2598191;47;20038;31
2022/04/03 20:06:28;;;;;;;6.60;3.88;;;;;;;3.79;100.00;102028.28;2598841;54;20720;31
2022/04/03 20:14:20;;;;;;;6.25;3.30;;;;;;;3.75;100.00;102010.72;2598053;39;21259;31
2022/04/03 20:22:14;;;;;;;4.60;2.50;;;;;;;3.80;100.00;102003.41;2598357;39;20292;31
2022/04/03 20:30:33;;;;;;;8.32;5.05;;;;;;;3.59;100.00;102007.84;2597863;54;20038;31
2022/04/03 20:33:18;;;;;;;18.20;11.80;;;;;;;3.42;100.00;101997.00;2598303;46;20417;31
2022/04/03 20:50:08;;;;;;;9.15;4.20;;;;;;;3.02;100.00;101991.47;2598375;54;20102;31
2022/04/03 21:01:14;;;;;;;9.85;6.45;;;;;;;3.12;100.00;101979.53;2598512;54;20783;31
2022/04/03 21:15:03;;;;;;;10.93;6.15;;;;;;;2.79;100.00;101977.22;2642088;37;20331;31
2022/04/03 21:20:29;;;;;;;9.98;5.30;;;;;;;2.92;100.00;101976.78;2601947;54;20059;31
2022/04/03 21:41:57;;;;;;;8.27;4.35;;;;;;;2.39;100.00;101953.97;2584469;54;20093;31
2022/04/03 21:44:33;;;;;;;8.65;4.65;;;;;;;2.21;100.00;101944.84;2583719;46;21300;31
2022/04/03 21:47:09;;;;;;;6.90;4.70;;;;;;;2.19;100.00;101944.03;2584139;38;22170;31
2022/04/03 21:52:18;;;;;;;7.47;4.80;;;;;;;2.02;100.00;101932.25;2583482;54;20093;31
2022/04/03 21:54:55;;;;;;;8.10;5.00;;;;;;;1.97;100.00;101923.56;2584666;38;21086;31
2022/04/03 21:57:33;;;;;;;6.60;4.50;;;;;;;2.03;100.00;101928.66;2584439;46;20401;31
2022/04/03 22:05:20;;;;;;;6.53;4.38;;;;;;;2.09;100.00;101915.16;2582939;54;20887;31
2022/04/03 22:10:30;;;;;;;7.15;4.97;;;;;;;1.99;100.00;101907.56;2583027;54;20929;31
2022/04/03 22:15:41;;;;;;;10.30;4.85;;;;;;;2.04;100.00;101900.31;2584657;38;22233;31
2022/04/03 22:20:50;;;;;;;7.88;4.82;;;;;;;2.09;100.00;101896.59;2583369;54;20298;31
2022/04/03 22:25:58;;;;;;;9.10;5.30;;;;;;;2.19;100.00;101886.47;2583312;54;20606;31
2022/04/03 22:33:45;;;;;;;10.30;5.83;;;;;;;2.19;100.00;101878.50;2584542;38;20222;31
2022/04/03 22:36:21;;;;;;;7.95;5.50;;;;;;;2.19;100.00;101881.16;2581236;46;20349;31
2022/04/03 22:44:08;;;;;;;10.48;6.03;;;;;;;2.11;100.00;101880.59;2579093;54;20759;31
2022/04/03 22:54:27;;;;;;;9.47;6.10;;;;;;;2.10;100.00;101866.41;2579688;54;21307;31
2022/04/03 22:59:37;;;;;;;11.30;6.30;;;;;;;2.14;100.00;101861.88;2579533;54;20034;31
2022/04/03 23:07:18;;;;;;;11.67;6.13;;;;;;;2.27;100.00;101844.56;2579353;54;20065;31
2022/04/03 23:09:57;;;;;;;8.82;6.00;;;;;;;2.17;100.00;101848.47;2580093;47;20962;31
2022/04/03 23:17:43;;;;;;;10.85;6.35;;;;;;;2.19;100.00;101832.50;2579564;54;20620;31
2022/04/03 23:20:19;;;;;;;11.57;6.65;;;;;;;2.29;100.00;101839.19;2579360;46;20057;31
2022/04/03 23:22:55;;;;;;;11.23;6.53;;;;;;;2.28;100.00;101827.69;2579710;54;20931;31
2022/04/03 23:25:35;;;;;;;9.65;6.50;;;;;;;2.22;100.00;101816.44;2580581;39;20315;31
2022/04/03 23:33:24;;;;;;;9.52;6.57;;;;;;;2.23;100.00;101812.84;2579826;54;20034;31
2022/04/03 23:38:37;;;;;;;10.10;6.90;;;;;;;2.30;100.00;101798.41;2581021;39;20298;31
2022/04/03 23:41:16;;;;;;;12.17;7.33;;;;;;;2.18;100.00;101797.09;2580076;47;20120;31
2022/04/03 23:49:03;;;;;;;10.45;7.85;;;;;;;2.03;100.00;101782.63;2581056;39;21939;31
2022/04/03 23:51:40;;;;;;;11.57;7.68;;;;;;;2.08;100.00;101778.00;2580762;39;21212;31
2022/04/03 23:56:51;;;;;;;11.60;7.80;;;;;;;2.05;100.00;101772.81;2579369;54;20101;31
2022/04/03 23:59:27;;;;;;;9.80;6.80;;;;;;;2.12;100.00;101767.25;2579937;47;20902;31
